Lulu Pass Weather Station

This weather station is located at 10020ft near Lulu Pass at the head of Fisher Creek. This data can be used with temperature and precipitation data from the Fisher Creek SNOTEL site. This data can be viewed directly on datagarrison.com

Elevation
10020ft
Jump to table bottom
Date Time Temperature
deg F
RH, % Wind Speed Wind Gust Wind Direction
04/15/24 15:00 31.6 75 6 16 NE - 55
04/15/24 14:00 32.8 82 7 19 NE - 51
04/15/24 13:00 34.4 83 11 17 NW - 334
04/15/24 12:00 34.2 81 8 15 NW - 330
04/15/24 11:00 36.7 78 7 11 NW - 327
04/15/24 10:00 36.8 79 4 6 N - 14
04/15/24 9:00 33.3 83 2 4 NW - 320
04/15/24 8:00 30.7 87 5 14 N - 8
04/15/24 7:00 31.9 80 5 12 NE - 65
04/15/24 6:00 29.2 90 7 15 N - 10
04/15/24 5:00 27.2 96 11 18 N - 345
04/15/24 4:00 28.0 95 7 14 W - 279
04/15/24 3:00 30.5 84 10 17 NW - 307
04/15/24 2:00 32.2 75 10 106 NW - 323
04/15/24 1:00 33.6 72 8 11 N - 1
04/14/24 24:00 33.1 76 10 15 N - 343
04/14/24 23:00 33.8 71 14 29 NE - 24
04/14/24 22:00 33.8 81 7 30 SE - 115
04/14/24 21:00 37.8 58 5 14 E - 79
04/14/24 20:00 38.7 54 5 14 E - 70
04/14/24 19:00 40.1 51 4 10 NE - 58
04/14/24 18:00 44.4 28 3 8 N - 343
04/14/24 17:00 47.9 27 6 13 W - 272
04/14/24 16:00 47.0 28 7 13 S - 188
04/14/24 15:00 46.8 28 12 22 S - 187
04/14/24 14:00 45.4 30 12 21 S - 192
04/14/24 13:00 44.9 31 9 18 S - 191
04/14/24 12:00 43.9 30 6 16 S - 199
04/14/24 11:00 45.4 32 5 10 S - 174
04/14/24 10:00 44.0 37 3 9 SE - 156
04/14/24 9:00 42.6 44 5 10 SE - 152
04/14/24 8:00 38.1 50 5 8 SE - 147
04/14/24 7:00 34.6 56 4 7 SE - 142
04/14/24 6:00 36.7 49 7 10 SE - 142
04/14/24 5:00 35.8 50 6 12 S - 173
04/14/24 4:00 37.3 46 8 15 S - 161
04/14/24 3:00 37.7 48 7 12 S - 166
04/14/24 2:00 37.6 53 5 11 S - 164
04/14/24 1:00 36.8 56 4 8 SW - 220
04/13/24 24:00 37.8 55 3 6 W - 270
04/13/24 23:00 37.9 53 5 12 SW - 230
04/13/24 22:00 38.5 49 4 8 SW - 239
04/13/24 21:00 38.9 49 6 14 SW - 220
04/13/24 20:00 39.5 51 3 9 NW - 293
04/13/24 19:00 39.7 52 9 14 NW - 337
04/13/24 18:00 41.6 50 12 19 NW - 333
04/13/24 17:00 42.2 48 15 31 NW - 320
04/13/24 16:00 40.1 55 16 106 NW - 299
04/13/24 15:00 45.4 41 10 20 SW - 239
04/13/24 14:00 45.3 42 9 22 W - 270